createdAt,value
2023-01-11T00:01:57.217Z,1.13
2023-01-11T00:04:30.512Z,0.98
2023-01-11T00:06:59.646Z,2.08
2023-01-11T00:09:28.013Z,1.23
2023-01-11T00:11:56.409Z,1.92
2023-01-11T00:14:25.439Z,1.27
2023-01-11T00:16:54.139Z,1.70
2023-01-11T00:19:22.473Z,1.40
2023-01-11T00:21:52.244Z,1.15
2023-01-11T00:24:20.671Z,1.20
2023-01-11T00:26:49.059Z,1.45
2023-01-11T00:29:17.635Z,1.55
2023-01-11T00:31:46.021Z,1.20
2023-01-11T00:34:14.417Z,1.95
2023-01-11T00:36:43.038Z,2.13
2023-01-11T00:39:12.762Z,2.08
2023-01-11T00:41:58.796Z,2.15
2023-01-11T00:44:44.666Z,1.50
2023-01-11T00:47:33.682Z,2.28
2023-01-11T00:50:02.269Z,1.77
2023-01-11T00:52:30.645Z,1.70
2023-01-11T00:55:00.371Z,1.77
2023-01-11T00:57:28.733Z,1.25
2023-01-11T00:59:57.096Z,1.98
2023-01-11T01:02:25.507Z,1.80
2023-01-11T01:04:53.868Z,1.48
2023-01-11T01:07:22.340Z,1.60
2023-01-11T01:09:50.734Z,2.58
2023-01-11T01:12:34.338Z,1.60
2023-01-11T01:15:02.686Z,1.70
2023-01-11T01:17:31.104Z,2.78
2023-01-11T01:19:59.492Z,1.23
2023-01-11T01:22:27.885Z,2.20
2023-01-11T01:24:56.266Z,1.98
2023-01-11T01:27:26.049Z,1.73
2023-01-11T01:29:54.440Z,1.75
2023-01-11T01:32:22.891Z,1.40
2023-01-11T01:34:51.296Z,1.65
2023-01-11T01:37:19.656Z,1.63
2023-01-11T01:39:47.984Z,1.95
2023-01-11T01:42:18.990Z,2.13
2023-01-11T01:45:18.038Z,1.48
2023-01-11T01:47:50.526Z,2.28
2023-01-11T01:50:24.452Z,1.75
2023-01-11T01:52:58.576Z,2.00
2023-01-11T01:55:31.929Z,1.50
2023-01-11T01:58:02.516Z,2.10
2023-01-11T02:00:33.173Z,2.17
2023-01-11T02:03:03.140Z,2.33
2023-01-11T02:05:32.068Z,1.92
2023-01-11T02:08:04.097Z,1.88
2023-01-11T02:10:34.918Z,1.30
2023-01-11T02:13:06.867Z,1.50
2023-01-11T02:15:37.699Z,1.30
2023-01-11T02:18:11.279Z,2.22
2023-01-11T02:21:09.145Z,2.45
2023-01-11T02:24:20.047Z,2.15
2023-01-11T02:27:25.640Z,2.20
2023-01-11T02:30:15.544Z,2.00
2023-01-11T02:32:57.960Z,2.10
2023-01-11T02:35:40.833Z,1.73
2023-01-11T02:38:16.646Z,1.50
2023-01-11T02:41:00.161Z,1.47
2023-01-11T02:43:51.797Z,3.00
2023-01-11T02:46:30.924Z,2.27
2023-01-11T02:49:09.630Z,1.48
2023-01-11T02:51:44.001Z,2.10
2023-01-11T02:54:17.339Z,1.63
2023-01-11T02:56:50.209Z,1.93
2023-01-11T02:59:24.004Z,1.67
2023-01-11T03:01:56.117Z,2.33
2023-01-11T03:04:31.413Z,1.90
2023-01-11T03:07:21.844Z,1.57
2023-01-11T03:10:09.360Z,2.13
2023-01-11T03:12:55.144Z,1.60
2023-01-11T03:15:45.581Z,1.97
2023-01-11T03:18:32.079Z,1.60
2023-01-11T03:21:14.295Z,1.43
2023-01-11T03:23:53.311Z,1.70
2023-01-11T03:26:34.189Z,1.87
2023-01-11T03:29:12.482Z,1.63
2023-01-11T03:31:49.100Z,2.70
2023-01-11T03:34:29.833Z,1.63
2023-01-11T03:37:04.528Z,1.20
2023-01-11T03:39:38.457Z,1.73
2023-01-11T03:42:10.439Z,1.30
2023-01-11T03:44:45.756Z,2.13
2023-01-11T03:47:18.187Z,1.33
2023-01-11T03:49:53.105Z,1.43
2023-01-11T03:52:26.884Z,1.30
2023-01-11T03:54:57.224Z,2.20
2023-01-11T03:57:32.150Z,1.90
2023-01-11T04:00:01.082Z,1.40
2023-01-11T04:02:36.857Z,1.40
2023-01-11T04:05:08.164Z,1.33
2023-01-11T04:07:36.682Z,2.30
2023-01-11T04:10:06.056Z,1.63
2023-01-11T04:12:34.483Z,1.90
2023-01-11T04:15:03.250Z,1.60
2023-01-11T04:17:32.001Z,1.50
2023-01-11T04:20:00.414Z,1.40
2023-01-11T04:22:30.145Z,1.03
2023-01-11T04:24:58.501Z,1.57
2023-01-11T04:27:26.842Z,2.60
2023-01-11T04:29:55.203Z,1.27
2023-01-11T04:32:23.608Z,1.23
2023-01-11T04:34:52.031Z,1.30
2023-01-11T04:37:20.392Z,1.30
2023-01-11T04:39:50.138Z,1.77
2023-01-11T04:42:21.574Z,1.30
2023-01-11T04:44:51.703Z,1.97
2023-01-11T04:47:24.169Z,1.63
2023-01-11T04:49:52.976Z,1.93
2023-01-11T04:52:22.037Z,1.60
2023-01-11T04:54:52.581Z,2.63
2023-01-11T04:57:21.021Z,1.97
2023-01-11T04:59:49.945Z,2.33
2023-01-11T05:02:18.754Z,2.13
2023-01-11T05:04:47.151Z,2.03
2023-01-11T05:07:15.518Z,2.73
2023-01-11T05:09:43.924Z,1.87
2023-01-11T05:12:13.685Z,2.30
2023-01-11T05:14:42.057Z,2.87
2023-01-11T05:17:15.322Z,2.03
2023-01-11T05:19:44.451Z,2.03
2023-01-11T05:22:12.838Z,3.20
2023-01-11T05:24:41.250Z,2.63
2023-01-11T05:27:09.667Z,2.73
2023-01-11T05:29:39.476Z,3.43
2023-01-11T05:32:08.042Z,3.17
2023-01-11T05:34:36.758Z,2.57
2023-01-11T05:37:05.157Z,3.33
2023-01-11T05:39:33.570Z,2.23
2023-01-11T05:42:01.998Z,2.63
2023-01-11T05:44:47.674Z,2.13
2023-01-11T05:47:17.498Z,2.67
2023-01-11T05:49:45.856Z,2.40
2023-01-11T05:52:14.291Z,2.80
2023-01-11T05:54:42.696Z,3.00
2023-01-11T05:57:11.995Z,2.63
2023-01-11T05:59:40.399Z,2.70
2023-01-11T06:02:08.935Z,2.67
2023-01-11T06:04:38.876Z,3.33
2023-01-11T06:07:09.919Z,2.87
2023-01-11T06:09:38.364Z,2.40
2023-01-11T06:12:07.251Z,3.70
2023-01-11T06:14:38.024Z,3.07
2023-01-11T06:17:06.663Z,2.83
2023-01-11T06:19:35.121Z,2.73
2023-01-11T06:22:04.918Z,2.90
2023-01-11T06:24:33.391Z,2.77
2023-01-11T06:27:01.792Z,2.70
2023-01-11T06:29:30.232Z,2.67
2023-01-11T06:31:58.946Z,3.80
2023-01-11T06:34:27.543Z,4.53
2023-01-11T06:36:55.953Z,5.17
2023-01-11T06:39:25.715Z,4.80
2023-01-11T06:41:54.126Z,4.13
2023-01-11T06:44:22.706Z,4.50
2023-01-11T06:46:51.121Z,3.17
2023-01-11T06:49:19.625Z,3.90
2023-01-11T06:51:48.017Z,4.23
2023-01-11T06:54:21.985Z,4.60
2023-01-11T06:56:51.783Z,2.17
2023-01-11T06:59:20.202Z,2.70
2023-01-11T07:01:48.714Z,4.80
2023-01-11T07:04:18.719Z,3.60
2023-01-11T07:06:47.366Z,5.70
2023-01-11T07:09:15.788Z,2.57
2023-01-11T07:11:44.177Z,3.93
2023-01-11T07:14:19.825Z,3.83
2023-01-11T07:16:48.294Z,5.17
2023-01-11T07:19:18.168Z,5.50
2023-01-11T07:21:46.572Z,3.93
2023-01-11T07:24:15.234Z,4.30
2023-01-11T07:26:43.901Z,4.23
2023-01-11T07:29:13.832Z,3.47
2023-01-11T07:31:42.282Z,4.37
2023-01-11T07:34:10.724Z,4.73
2023-01-11T07:36:39.762Z,3.00
2023-01-11T07:39:08.824Z,3.27
2023-01-11T07:41:54.832Z,3.63
2023-01-11T07:44:24.637Z,3.27
2023-01-11T07:46:53.127Z,3.67
2023-01-11T07:49:21.609Z,3.60
2023-01-11T07:51:52.120Z,3.50
2023-01-11T07:54:20.779Z,2.60
2023-01-11T07:56:49.275Z,3.17
2023-01-11T07:59:18.056Z,3.40
2023-01-11T08:01:47.804Z,3.00
2023-01-11T08:04:16.872Z,3.73
2023-01-11T08:06:45.265Z,3.50
2023-01-11T08:09:13.974Z,3.40
2023-01-11T08:11:59.861Z,3.77
2023-01-11T08:14:40.651Z,3.53
2023-01-11T08:17:12.793Z,3.20
2023-01-11T08:19:41.656Z,3.80
2023-01-11T08:22:10.945Z,4.60
2023-01-11T08:24:39.550Z,3.63
2023-01-11T08:27:08.113Z,4.37
2023-01-11T08:29:37.107Z,4.20
2023-01-11T08:32:06.080Z,4.83
2023-01-11T08:34:36.299Z,5.47
2023-01-11T08:37:05.422Z,4.88
2023-01-11T08:39:33.907Z,5.70
2023-01-11T08:42:03.595Z,5.85
2023-01-11T08:44:34.707Z,6.60
2023-01-11T08:47:03.916Z,4.87
2023-01-11T08:49:32.457Z,3.93
2023-01-11T08:52:02.385Z,3.35
2023-01-11T08:54:30.826Z,3.92
2023-01-11T08:56:59.333Z,5.20
2023-01-11T08:59:27.795Z,3.53
2023-01-11T09:01:56.583Z,3.22
2023-01-11T09:04:25.923Z,2.83
2023-01-11T09:06:55.219Z,2.75
2023-01-11T09:09:25.155Z,3.15
2023-01-11T09:11:57.051Z,2.30
2023-01-11T09:14:27.955Z,2.88
2023-01-11T09:16:57.685Z,4.30
2023-01-11T09:19:26.384Z,2.88
2023-01-11T09:21:58.279Z,3.88
2023-01-11T09:24:28.201Z,3.28
2023-01-11T09:26:59.215Z,2.78
2023-01-11T09:29:28.134Z,2.30
2023-01-11T09:31:56.636Z,3.00
2023-01-11T09:34:27.324Z,2.58
2023-01-11T09:36:56.801Z,2.30
2023-01-11T09:39:27.601Z,2.88
2023-01-11T09:42:31.737Z,2.97
2023-01-11T09:45:09.508Z,3.72
2023-01-11T09:47:43.331Z,4.03
2023-01-11T09:50:20.660Z,3.25
2023-01-11T09:52:53.471Z,3.00
2023-01-11T09:55:32.037Z,3.45
2023-01-11T09:58:46.728Z,2.85
2023-01-11T10:01:20.752Z,4.40
2023-01-11T10:04:36.826Z,3.55
2023-01-11T10:07:24.713Z,3.45
2023-01-11T10:18:39.408Z,3.28
2023-01-11T10:19:35.891Z,2.83
2023-01-11T10:22:15.873Z,3.78
2023-01-11T10:24:50.735Z,3.83
2023-01-11T10:27:30.058Z,3.35
2023-01-11T10:30:13.722Z,3.70
2023-01-11T10:32:54.354Z,3.30
2023-01-11T10:35:45.718Z,3.35
2023-01-11T10:38:42.736Z,3.10
2023-01-11T10:41:26.425Z,2.80
2023-01-11T10:44:11.949Z,2.40
2023-01-11T10:46:46.126Z,3.65
2023-01-11T10:49:40.229Z,2.78
2023-01-11T10:52:25.860Z,2.88
2023-01-11T10:54:57.353Z,2.17
2023-01-11T10:57:59.314Z,2.05
2023-01-11T11:00:40.531Z,2.72
2023-01-11T11:03:45.571Z,2.65
2023-01-11T11:06:29.876Z,2.60
2023-01-11T11:09:09.459Z,2.80
2023-01-11T11:11:42.653Z,3.08
2023-01-11T11:14:19.039Z,2.80
2023-01-11T11:17:05.127Z,2.17
2023-01-11T11:19:34.886Z,2.58
2023-01-11T11:22:04.735Z,1.88
2023-01-11T11:24:38.635Z,2.67
2023-01-11T11:27:18.917Z,1.95
2023-01-11T11:29:53.796Z,1.70
2023-01-11T11:32:28.391Z,2.45
2023-01-11T11:34:57.013Z,1.90
2023-01-11T11:37:32.827Z,2.72
2023-01-11T11:40:01.466Z,2.50
2023-01-11T11:42:30.015Z,2.70
2023-01-11T11:45:18.763Z,1.73
2023-01-11T11:48:03.626Z,2.40
2023-01-11T11:50:44.329Z,1.92
2023-01-11T11:53:30.657Z,3.10
2023-01-11T11:55:59.305Z,1.42
2023-01-11T11:58:28.726Z,2.60
2023-01-11T12:00:57.201Z,2.47
2023-01-11T12:03:30.768Z,2.70
2023-01-11T12:06:02.654Z,1.73
2023-01-11T12:08:35.623Z,1.95
2023-01-11T12:11:07.769Z,1.52
2023-01-11T12:13:39.098Z,1.98
2023-01-11T12:16:21.757Z,1.60
2023-01-11T12:18:50.882Z,2.05
2023-01-11T12:21:22.695Z,2.22
2023-01-11T12:24:14.002Z,3.15
2023-01-11T12:26:54.937Z,2.58
2023-01-11T12:30:05.352Z,2.92
2023-01-11T12:33:12.142Z,1.50
2023-01-11T12:35:55.898Z,2.10
2023-01-11T12:38:38.705Z,2.20
2023-01-11T12:41:47.544Z,2.97
2023-01-11T12:44:34.210Z,2.83
2023-01-11T12:47:36.076Z,2.13
2023-01-11T12:50:18.444Z,2.65
2023-01-11T12:53:07.928Z,1.75
2023-01-11T12:55:51.496Z,2.00
2023-01-11T12:58:30.946Z,3.10
2023-01-11T13:01:26.417Z,2.50
2023-01-11T13:04:48.569Z,2.28
2023-01-11T13:07:41.796Z,2.20
2023-01-11T13:10:36.507Z,1.60
2023-01-11T13:13:13.391Z,2.58
2023-01-11T13:15:56.819Z,3.33
2023-01-11T13:18:38.284Z,2.50
2023-01-11T13:21:25.473Z,1.75
2023-01-11T13:23:58.228Z,2.10
2023-01-11T13:26:31.610Z,2.15
2023-01-11T13:29:04.429Z,2.75
2023-01-11T13:31:36.043Z,3.42
2023-01-11T13:34:13.822Z,2.63
2023-01-11T13:36:48.911Z,2.92
2023-01-11T13:39:28.536Z,2.75
2023-01-11T13:42:00.427Z,2.65
2023-01-11T13:44:37.167Z,3.15
2023-01-11T13:47:16.941Z,2.15
2023-01-11T13:50:01.307Z,3.00
2023-01-11T13:52:49.607Z,3.63
2023-01-11T13:55:26.606Z,2.92
2023-01-11T13:58:03.095Z,1.80
2023-01-11T14:00:39.749Z,2.55
2023-01-11T14:03:23.842Z,2.15
2023-01-11T14:06:09.681Z,2.17
2023-01-11T14:09:25.746Z,1.65
2023-01-11T14:12:04.420Z,2.22
2023-01-11T14:15:09.405Z,1.88
2023-01-11T14:18:09.001Z,1.67
2023-01-11T14:20:48.895Z,1.70
2023-01-11T14:23:20.148Z,1.40
2023-01-11T14:26:45.853Z,4.55
2023-01-11T14:29:59.327Z,3.88
2023-01-11T14:33:21.980Z,3.45
2023-01-11T14:36:22.943Z,2.50
2023-01-11T14:39:22.081Z,2.13
2023-01-11T14:42:35.473Z,2.03
2023-01-11T14:45:31.182Z,2.55
2023-01-11T14:48:25.674Z,2.50
2023-01-11T14:51:32.440Z,1.77
2023-01-11T14:54:08.112Z,1.80
2023-01-11T14:56:53.307Z,2.30
2023-01-11T14:59:40.418Z,2.70
2023-01-11T15:02:26.407Z,2.95
2023-01-11T15:05:13.418Z,2.80
2023-01-11T15:07:43.788Z,2.90
2023-01-11T15:10:58.673Z,1.77
2023-01-11T15:13:32.590Z,3.63
2023-01-11T15:16:28.720Z,2.95
2023-01-11T15:18:58.107Z,4.65
2023-01-11T15:21:28.284Z,2.60
2023-01-11T15:23:59.772Z,3.08
2023-01-11T15:26:29.097Z,3.65
2023-01-11T15:28:59.440Z,4.03
2023-01-11T15:31:39.267Z,4.38
2023-01-11T15:34:26.082Z,3.97
2023-01-11T15:37:15.565Z,2.97
2023-01-11T15:39:52.648Z,4.03
2023-01-11T15:43:08.555Z,3.20
2023-01-11T15:46:49.683Z,3.03
2023-01-11T15:50:28.479Z,2.10
2023-01-11T15:53:32.012Z,2.63
2023-01-11T15:57:02.994Z,3.22
2023-01-11T16:00:20.043Z,3.88
2023-01-11T16:03:25.515Z,2.67
2023-01-11T16:06:05.558Z,2.60
2023-01-11T16:08:40.837Z,2.45
2023-01-11T16:11:22.834Z,3.05
2023-01-11T16:14:15.257Z,3.42
2023-01-11T16:16:45.135Z,3.97
2023-01-11T16:19:20.040Z,3.20
2023-01-11T16:21:51.411Z,2.95
2023-01-11T16:24:23.010Z,2.65
2023-01-11T16:26:55.776Z,2.42
2023-01-11T16:29:30.112Z,3.38
2023-01-11T16:32:01.996Z,3.13
2023-01-11T16:34:41.016Z,2.45
2023-01-11T16:37:24.125Z,4.38
2023-01-11T16:39:56.960Z,2.92
2023-01-11T16:42:28.555Z,2.60
2023-01-11T16:45:02.311Z,3.97
2023-01-11T16:47:30.804Z,3.88
2023-01-11T16:50:25.248Z,3.58
2023-01-11T16:52:55.636Z,4.55
2023-01-11T16:55:31.123Z,4.00
2023-01-11T16:58:03.504Z,4.53
2023-01-11T17:00:38.313Z,2.47
2023-01-11T17:03:23.951Z,2.67
2023-01-11T17:06:20.857Z,2.47
2023-01-11T17:08:52.324Z,3.65
2023-01-11T17:11:33.411Z,2.85
2023-01-11T17:14:39.129Z,2.92
2023-01-11T17:17:11.912Z,3.28
2023-01-11T17:19:47.153Z,3.53
2023-01-11T17:22:23.037Z,4.80
2023-01-11T17:24:55.837Z,2.60
2023-01-11T17:27:29.370Z,2.55
2023-01-11T17:29:59.291Z,2.55
2023-01-11T17:32:37.485Z,2.40
2023-01-11T17:35:14.922Z,2.75
2023-01-11T17:37:45.419Z,2.60
2023-01-11T17:40:24.802Z,3.03
2023-01-11T17:43:12.268Z,5.30
2023-01-11T17:45:40.941Z,3.80
2023-01-11T17:48:16.692Z,2.25
2023-01-11T17:50:50.501Z,3.67
2023-01-11T17:53:26.858Z,3.08
2023-01-11T17:55:58.402Z,3.17
2023-01-11T17:58:28.587Z,3.97
2023-01-11T18:01:21.682Z,3.53
2023-01-11T18:03:54.456Z,4.25
2023-01-11T18:06:32.127Z,3.47
2023-01-11T18:09:03.733Z,4.20
2023-01-11T18:11:36.366Z,4.82
2023-01-11T18:14:08.431Z,4.55
2023-01-11T18:16:37.072Z,3.65
2023-01-11T18:19:25.829Z,4.28
2023-01-11T18:21:55.879Z,3.00
2023-01-11T18:24:45.199Z,3.55
2023-01-11T18:27:31.820Z,3.75
2023-01-11T18:30:07.880Z,3.30
2023-01-11T18:32:42.102Z,4.55
2023-01-11T18:35:19.328Z,4.10
2023-01-11T18:37:48.505Z,4.75
2023-01-11T18:40:21.705Z,4.40
2023-01-11T18:42:53.324Z,4.50
2023-01-11T18:45:24.981Z,3.97
2023-01-11T18:47:54.154Z,5.93
2023-01-11T18:50:25.054Z,4.20
2023-01-11T18:52:54.124Z,4.32
2023-01-11T18:55:22.642Z,4.25
2023-01-11T18:57:51.355Z,4.65
2023-01-11T19:00:21.945Z,6.00
2023-01-11T19:05:26.597Z,6.20
2023-01-11T19:07:55.909Z,5.90
2023-01-11T19:10:25.683Z,4.70
2023-01-11T19:12:57.263Z,6.03
2023-01-11T19:15:26.243Z,5.60
2023-01-11T19:17:55.372Z,5.40
2023-01-11T19:20:26.348Z,3.85
2023-01-11T19:22:55.544Z,5.53
2023-01-11T19:25:25.190Z,3.92
2023-01-11T19:27:55.030Z,4.32
2023-01-11T19:30:24.169Z,4.22
2023-01-11T19:32:53.726Z,4.00
2023-01-11T19:35:23.984Z,3.22
2023-01-11T19:37:55.034Z,4.05
2023-01-11T19:40:24.562Z,2.60
2023-01-11T19:42:53.604Z,2.58
2023-01-11T19:45:22.885Z,3.78
2023-01-11T19:47:52.089Z,2.95
2023-01-11T19:50:21.099Z,2.20
2023-01-11T19:52:49.671Z,2.17
2023-01-11T19:55:20.823Z,2.75
2023-01-11T19:57:49.545Z,1.85
2023-01-11T20:00:20.678Z,1.92
2023-01-11T20:02:49.536Z,1.77
2023-01-11T20:05:18.948Z,1.60
2023-01-11T20:07:50.068Z,1.42
2023-01-11T20:10:21.631Z,1.10
2023-01-11T20:12:50.492Z,2.00
2023-01-11T20:15:19.243Z,1.33
2023-01-11T20:17:47.969Z,1.50
2023-01-11T20:20:17.203Z,1.60
2023-01-11T20:22:47.231Z,1.40
2023-01-11T20:25:17.831Z,1.67
2023-01-11T20:27:48.524Z,1.50
2023-01-11T20:30:19.161Z,1.83
2023-01-11T20:32:48.643Z,1.33
2023-01-11T20:35:17.698Z,1.60
2023-01-11T20:37:46.852Z,1.38
2023-01-11T20:40:15.901Z,1.45
2023-01-11T20:42:45.715Z,1.50
2023-01-11T20:45:16.206Z,1.73
2023-01-11T20:47:45.653Z,1.23
2023-01-11T20:50:14.313Z,1.13
2023-01-11T20:52:43.109Z,1.50
2023-01-11T20:55:12.207Z,1.38
2023-01-11T20:57:40.921Z,1.15
2023-01-11T21:00:14.753Z,0.80
2023-01-11T21:02:44.636Z,1.10
2023-01-11T21:05:13.256Z,0.93
2023-01-11T21:07:41.735Z,1.05
2023-01-11T21:10:11.958Z,0.80
2023-01-11T21:12:40.458Z,0.80
2023-01-11T21:15:10.927Z,1.58
2023-01-11T21:17:39.429Z,2.03
2023-01-11T21:20:11.578Z,1.27
2023-01-11T21:22:40.081Z,0.95
2023-01-11T21:25:10.438Z,1.00
2023-01-11T21:27:39.094Z,1.63
2023-01-11T21:30:09.716Z,1.10
2023-01-11T21:32:38.174Z,0.70
2023-01-11T21:35:09.365Z,1.40
2023-01-11T21:37:37.821Z,0.90
2023-01-11T21:40:08.114Z,0.93
2023-01-11T21:42:36.625Z,1.38
2023-01-11T21:45:06.578Z,1.38
2023-01-11T21:47:35.098Z,1.13
2023-01-11T21:50:03.843Z,0.90
2023-01-11T21:52:33.735Z,1.08
2023-01-11T21:55:02.279Z,1.13
2023-01-11T21:57:30.734Z,1.50
2023-01-11T21:59:59.214Z,1.42
2023-01-11T22:02:27.693Z,0.98
2023-01-11T22:04:57.814Z,1.92
2023-01-11T22:07:27.265Z,1.15
2023-01-11T22:10:04.557Z,1.90
2023-01-11T22:12:35.175Z,1.88
2023-01-11T22:15:03.897Z,1.35
2023-01-11T22:17:32.351Z,1.38
2023-01-11T22:20:00.909Z,1.60
2023-01-11T22:22:29.372Z,1.45
2023-01-11T22:24:59.716Z,1.35
2023-01-11T22:27:28.203Z,1.60
2023-01-11T22:29:56.690Z,1.73
2023-01-11T22:32:25.685Z,1.33
2023-01-11T22:34:54.138Z,1.85
2023-01-11T22:37:22.677Z,1.70
2023-01-11T22:39:51.184Z,1.92
2023-01-11T22:42:21.026Z,2.05
2023-01-11T22:44:49.805Z,2.28
2023-01-11T22:47:18.250Z,2.60
2023-01-11T22:49:46.687Z,2.28
2023-01-11T22:52:15.115Z,2.50
2023-01-11T22:54:43.635Z,2.20
2023-01-11T22:57:12.037Z,1.70
2023-01-11T22:59:41.821Z,2.00
2023-01-11T23:02:10.335Z,2.25
2023-01-11T23:04:38.793Z,2.60
2023-01-11T23:07:07.279Z,2.20
2023-01-11T23:09:35.789Z,2.17
2023-01-11T23:12:21.929Z,1.70
2023-01-11T23:14:51.768Z,1.67
2023-01-11T23:17:20.662Z,2.03
2023-01-11T23:19:49.799Z,1.95
2023-01-11T23:22:18.254Z,1.85
2023-01-11T23:24:46.766Z,1.98
2023-01-11T23:27:15.242Z,2.00
2023-01-11T23:29:43.723Z,1.23
2023-01-11T23:32:13.807Z,1.98
2023-01-11T23:34:42.238Z,1.58
2023-01-11T23:37:10.680Z,1.77
2023-01-11T23:39:39.165Z,1.65
2023-01-11T23:42:24.873Z,1.52
2023-01-11T23:44:53.495Z,2.35
2023-01-11T23:47:23.995Z,1.85
2023-01-11T23:49:54.316Z,1.70
2023-01-11T23:52:25.812Z,1.85
2023-01-11T23:54:54.698Z,4.20
2023-01-11T23:57:24.775Z,2.97
2023-01-11T23:59:53.456Z,1.77
